createdAt,value
2022-11-16T00:02:18.982Z,99629.47
2022-11-16T00:04:45.417Z,99626.81
2022-11-16T00:07:12.039Z,99624.03
2022-11-16T00:09:38.657Z,99622.81
2022-11-16T00:12:07.345Z,99629.84
2022-11-16T00:14:35.742Z,99623.06
2022-11-16T00:17:02.773Z,99629.25
2022-11-16T00:19:29.686Z,99629.25
2022-11-16T00:21:56.245Z,99619.94
2022-11-16T00:24:23.376Z,99610.31
2022-11-16T00:26:50.312Z,99612.38
2022-11-16T00:29:20.006Z,99621.81
2022-11-16T00:31:47.092Z,99619.75
2022-11-16T00:34:14.048Z,99616.56
2022-11-16T00:36:40.615Z,99613.66
2022-11-16T00:39:07.222Z,99623.81
2022-11-16T00:41:33.729Z,99626.72
2022-11-16T00:44:00.129Z,99622.97
2022-11-16T00:46:26.722Z,99625.34
2022-11-16T00:48:53.299Z,99628.47
2022-11-16T00:51:19.679Z,99622.31
2022-11-16T00:53:46.314Z,99622.31
2022-11-16T00:56:12.948Z,99622.41
2022-11-16T00:58:39.320Z,99608.97
2022-11-16T01:01:08.905Z,99609.38
2022-11-16T01:03:36.329Z,99614.41
2022-11-16T01:06:04.648Z,99606.16
2022-11-16T01:08:31.670Z,99607.91
2022-11-16T01:11:19.031Z,99613.72
2022-11-16T01:13:45.410Z,99616.47
2022-11-16T01:16:16.426Z,99606.81
2022-11-16T01:18:50.777Z,99613.44
2022-11-16T01:21:18.074Z,99622.72
2022-11-16T01:23:45.042Z,99642.56
2022-11-16T01:26:11.524Z,99632.25
2022-11-16T01:28:37.921Z,99632.69
2022-11-16T01:31:04.634Z,99641.53
2022-11-16T01:33:31.042Z,99632.56
2022-11-16T01:35:57.449Z,99624.41
2022-11-16T01:38:27.209Z,99629.75
2022-11-16T01:40:56.133Z,99615.56
2022-11-16T01:43:24.708Z,99612.69
2022-11-16T01:45:51.810Z,99626.06
2022-11-16T01:48:23.466Z,99609.44
2022-11-16T01:50:50.523Z,99612.69
2022-11-16T01:53:17.077Z,99608.00
2022-11-16T01:55:46.609Z,99605.56
2022-11-16T01:58:19.646Z,99612.31
2022-11-16T02:00:46.420Z,99610.91
2022-11-16T02:03:12.828Z,99604.75
2022-11-16T02:06:06.821Z,99603.34
2022-11-16T02:09:27.581Z,99598.59
2022-11-16T02:12:28.894Z,99591.84
2022-11-16T02:15:01.413Z,99602.97
2022-11-16T02:17:43.027Z,99601.72
2022-11-16T02:20:09.521Z,99610.44
2022-11-16T02:23:20.765Z,99605.34
2022-11-16T02:26:02.248Z,99605.69
2022-11-16T02:29:05.647Z,99616.53
2022-11-16T02:31:39.589Z,99618.47
2022-11-16T02:34:10.169Z,99621.72
2022-11-16T02:36:40.062Z,99617.91
2022-11-16T02:39:12.221Z,99610.81
2022-11-16T02:41:43.036Z,99613.19
2022-11-16T02:44:18.324Z,99612.00
2022-11-16T02:46:48.553Z,99609.88
2022-11-16T02:49:18.630Z,99603.72
2022-11-16T02:51:47.680Z,99609.06
2022-11-16T02:54:19.589Z,99604.41
2022-11-16T02:56:58.156Z,99609.75
2022-11-16T02:59:30.867Z,99595.19
2022-11-16T03:02:31.614Z,99606.84
2022-11-16T03:05:15.664Z,99603.56
2022-11-16T03:07:50.790Z,99602.38
2022-11-16T03:10:38.722Z,99608.31
2022-11-16T03:13:09.568Z,99610.84
2022-11-16T03:15:39.414Z,99615.50
2022-11-16T03:18:08.798Z,99617.38
2022-11-16T03:20:38.497Z,99611.66
2022-11-16T03:23:10.014Z,99608.31
2022-11-16T03:25:42.102Z,99596.44
2022-11-16T03:28:15.099Z,99598.88
2022-11-16T03:30:47.113Z,99598.88
2022-11-16T03:33:27.551Z,99604.69
2022-11-16T03:36:07.137Z,99602.00
2022-11-16T03:38:36.645Z,99602.00
2022-11-16T03:41:07.824Z,99600.97
2022-11-16T03:43:36.354Z,99598.75
2022-11-16T03:46:02.901Z,99606.31
2022-11-16T03:48:37.954Z,99613.72
2022-11-16T03:51:05.694Z,99608.25
2022-11-16T03:53:32.113Z,99609.06
2022-11-16T03:55:58.582Z,99612.75
2022-11-16T03:58:24.972Z,99616.84
2022-11-16T04:00:51.428Z,99612.53
2022-11-16T04:03:17.921Z,99618.09
2022-11-16T04:06:03.006Z,99618.09
2022-11-16T04:08:53.884Z,99613.00
2022-11-16T04:11:40.185Z,99602.63
2022-11-16T04:14:31.983Z,99618.94
2022-11-16T04:17:17.296Z,99618.09
2022-11-16T04:20:02.227Z,99623.66
2022-11-16T04:22:57.153Z,99622.06
2022-11-16T04:25:30.577Z,99623.53
2022-11-16T04:28:16.633Z,99624.13
2022-11-16T04:31:04.967Z,99630.47
2022-11-16T04:33:50.475Z,99632.94
2022-11-16T04:36:35.732Z,99632.13
2022-11-16T04:39:02.305Z,99625.38
2022-11-16T04:41:49.308Z,99626.41
2022-11-16T04:44:16.060Z,99630.94
2022-11-16T04:47:01.378Z,99622.78
2022-11-16T04:49:28.016Z,99640.44
2022-11-16T04:51:54.464Z,99645.78
2022-11-16T04:54:20.884Z,99637.16
2022-11-16T04:56:47.445Z,99637.59
2022-11-16T04:59:14.249Z,99639.47
2022-11-16T05:01:59.417Z,99627.34
2022-11-16T05:04:25.906Z,99626.56
2022-11-16T05:06:52.380Z,99631.28
2022-11-16T05:09:18.938Z,99628.03
2022-11-16T05:11:45.309Z,99623.72
2022-11-16T05:14:11.878Z,99613.69
2022-11-16T05:16:38.292Z,99624.97
2022-11-16T05:19:23.490Z,99624.38
2022-11-16T05:21:49.920Z,99635.66
2022-11-16T05:24:34.171Z,99629.72
2022-11-16T05:27:05.479Z,99638.75
2022-11-16T05:29:32.287Z,99629.56
2022-11-16T05:31:59.509Z,99638.16
2022-11-16T05:34:26.247Z,99639.81
2022-11-16T05:36:52.749Z,99641.28
2022-11-16T05:39:19.566Z,99648.69
2022-11-16T05:41:46.937Z,99652.97
2022-11-16T05:44:14.594Z,99651.34
2022-11-16T05:46:41.647Z,99645.41
2022-11-16T05:49:08.817Z,99649.94
2022-11-16T05:51:40.320Z,99655.13
2022-11-16T05:54:07.459Z,99646.44
2022-11-16T05:56:34.581Z,99647.91
2022-11-16T05:59:01.388Z,99657.97
2022-11-16T06:01:28.034Z,99673.63
2022-11-16T06:03:54.486Z,99650.88
2022-11-16T06:06:21.029Z,99659.91
2022-11-16T06:08:47.561Z,99655.00
2022-11-16T06:11:14.369Z,99650.09
2022-11-16T06:13:40.995Z,99651.38
2022-11-16T06:16:08.095Z,99647.88
2022-11-16T06:18:39.939Z,99649.94
2022-11-16T06:21:07.392Z,99647.09
2022-11-16T06:23:34.432Z,99651.81
2022-11-16T06:26:01.506Z,99652.03
2022-11-16T06:28:28.639Z,99646.72
2022-11-16T06:30:55.130Z,99658.25
2022-11-16T06:33:21.873Z,99656.59
2022-11-16T06:35:48.267Z,99655.63
2022-11-16T06:38:18.646Z,99653.81
2022-11-16T06:40:52.694Z,99668.63
2022-11-16T06:43:19.919Z,99664.09
2022-11-16T06:45:50.750Z,99663.53
2022-11-16T06:48:18.191Z,99671.53
2022-11-16T06:50:45.244Z,99666.41
2022-11-16T06:53:11.732Z,99661.25
2022-11-16T06:55:38.113Z,99674.22
2022-11-16T06:58:04.652Z,99672.81
2022-11-16T07:00:31.196Z,99672.44
2022-11-16T07:02:57.630Z,99670.41
2022-11-16T07:05:24.061Z,99676.34
2022-11-16T07:07:55.246Z,99672.47
2022-11-16T07:10:23.506Z,99676.16
2022-11-16T07:12:49.947Z,99677.81
2022-11-16T07:15:16.929Z,99678.25
2022-11-16T07:17:43.383Z,99683.00
2022-11-16T07:20:09.935Z,99697.94
2022-11-16T07:22:36.307Z,99690.13
2022-11-16T07:25:02.709Z,99696.06
2022-11-16T07:27:29.117Z,99697.28
2022-11-16T07:29:55.712Z,99689.56
2022-11-16T07:32:22.198Z,99690.56
2022-11-16T07:34:48.572Z,99691.38
2022-11-16T07:37:14.939Z,99700.00
2022-11-16T07:42:25.222Z,99711.88
2022-11-16T07:44:51.602Z,99707.97
2022-11-16T07:47:17.954Z,99712.44
2022-11-16T07:49:44.388Z,99711.66
2022-11-16T07:52:10.981Z,99721.06
2022-11-16T07:54:37.535Z,99720.03
2022-11-16T07:57:03.984Z,99723.91
2022-11-16T07:59:30.370Z,99729.41
2022-11-16T08:01:57.174Z,99723.66
2022-11-16T08:04:23.722Z,99729.41
2022-11-16T08:06:51.781Z,99729.22
2022-11-16T08:09:18.483Z,99728.22
2022-11-16T08:11:47.142Z,99740.25
2022-11-16T08:14:13.983Z,99731.44
2022-11-16T08:16:40.444Z,99730.63
2022-11-16T08:19:06.807Z,99731.22
2022-11-16T08:21:33.278Z,99736.75
2022-11-16T08:23:59.653Z,99728.56
2022-11-16T08:26:27.954Z,99718.53
2022-11-16T08:28:56.488Z,99723.19
2022-11-16T08:31:26.240Z,99721.97
2022-11-16T08:33:53.134Z,99724.44
2022-11-16T08:36:20.349Z,99735.88
2022-11-16T08:38:48.883Z,99724.78
2022-11-16T08:41:16.704Z,99738.13
2022-11-16T08:43:44.512Z,99732.81
2022-11-16T08:46:11.496Z,99730.16
2022-11-16T08:48:38.776Z,99743.66
2022-11-16T08:51:19.437Z,99738.09
2022-11-16T08:53:48.186Z,99738.50
2022-11-16T08:56:16.526Z,99736.19
2022-11-16T08:58:44.282Z,99734.41
2022-11-16T09:01:13.863Z,99741.13
2022-11-16T09:03:41.057Z,99735.41
2022-11-16T09:06:09.371Z,99730.91
2022-11-16T09:08:37.688Z,99735.19
2022-11-16T09:11:09.348Z,99738.47
2022-11-16T09:13:35.798Z,99740.25
2022-11-16T09:16:03.005Z,99732.44
2022-11-16T09:18:30.398Z,99737.13
2022-11-16T09:20:57.182Z,99729.16
2022-11-16T09:23:25.566Z,99723.41
2022-11-16T09:25:53.128Z,99725.16
2022-11-16T09:28:20.673Z,99725.56
2022-11-16T09:30:50.371Z,99729.66
2022-11-16T09:33:17.237Z,99738.56
2022-11-16T09:35:44.087Z,99731.22
2022-11-16T09:38:12.665Z,99733.22
2022-11-16T09:40:46.020Z,99738.91
2022-11-16T09:43:27.046Z,99736.84
2022-11-16T09:46:22.893Z,99726.66
2022-11-16T09:48:50.235Z,99718.44
2022-11-16T09:51:18.532Z,99728.03
2022-11-16T09:53:55.341Z,99725.63
2022-11-16T09:56:23.985Z,99724.81
2022-11-16T09:59:02.834Z,99725.66
2022-11-16T10:01:47.230Z,99728.19
2022-11-16T10:04:20.223Z,99735.44
2022-11-16T10:06:56.160Z,99722.53
2022-11-16T10:09:23.255Z,99719.03
2022-11-16T10:12:28.763Z,99723.03
2022-11-16T10:15:20.592Z,99710.00
2022-11-16T10:18:02.379Z,99708.97
2022-11-16T10:20:46.436Z,99698.19
2022-11-16T10:23:32.969Z,99707.72
2022-11-16T10:26:37.375Z,99696.50
2022-11-16T10:29:22.795Z,99705.56
2022-11-16T10:32:02.007Z,99698.56
2022-11-16T10:34:37.378Z,99710.91
2022-11-16T10:37:08.439Z,99713.28
2022-11-16T10:39:36.605Z,99697.75
2022-11-16T10:42:11.708Z,99705.19
2022-11-16T10:44:46.598Z,99696.97
2022-11-16T10:47:28.128Z,99692.34
2022-11-16T10:50:00.555Z,99683.34
2022-11-16T10:52:28.054Z,99697.84
2022-11-16T10:54:54.480Z,99691.78
2022-11-16T10:57:23.731Z,99694.25
2022-11-16T10:59:55.414Z,99687.72
2022-11-16T11:02:24.711Z,99713.53
2022-11-16T11:05:06.656Z,99706.09
2022-11-16T11:07:37.674Z,99708.44
2022-11-16T11:10:05.086Z,99695.38
2022-11-16T11:12:40.592Z,99691.31
2022-11-16T11:15:07.020Z,99689.19
2022-11-16T11:17:35.616Z,99690.47
2022-11-16T11:20:23.007Z,99677.19
2022-11-16T11:22:54.337Z,99681.97
2022-11-16T11:25:32.348Z,99680.19
2022-11-16T11:28:16.993Z,99682.56
2022-11-16T11:30:53.852Z,99688.16
2022-11-16T11:33:23.795Z,99690.31
2022-11-16T11:36:04.332Z,99695.38
2022-11-16T11:38:31.909Z,99703.66
2022-11-16T11:41:05.301Z,99709.19
2022-11-16T11:43:34.350Z,99712.81
2022-11-16T11:46:12.114Z,99716.75
2022-11-16T11:48:58.279Z,99714.38
2022-11-16T11:51:31.305Z,99715.69
2022-11-16T11:54:00.607Z,99721.13
2022-11-16T11:56:30.618Z,99717.16
2022-11-16T11:58:57.748Z,99712.28
2022-11-16T12:01:39.473Z,99709.03
2022-11-16T12:04:13.892Z,99682.38
2022-11-16T12:06:58.016Z,99686.78
2022-11-16T12:09:38.151Z,99679.22
2022-11-16T12:12:20.634Z,99697.16
2022-11-16T12:15:14.106Z,99688.44
2022-11-16T12:17:53.392Z,99685.41
2022-11-16T12:20:43.919Z,99686.09
2022-11-16T12:23:27.423Z,99683.06
2022-11-16T12:26:36.762Z,99683.94
2022-11-16T12:29:29.126Z,99683.22
2022-11-16T12:32:37.895Z,99670.88
2022-11-16T12:35:36.990Z,99665.75
2022-11-16T12:38:29.163Z,99674.94
2022-11-16T12:41:26.117Z,99674.94
2022-11-16T12:44:08.469Z,99669.13
2022-11-16T12:46:40.908Z,99678.94
2022-11-16T12:49:16.413Z,99677.88
2022-11-16T12:51:57.207Z,99671.28
2022-11-16T12:55:04.250Z,99676.63
2022-11-16T12:58:02.412Z,99670.78
2022-11-16T13:00:39.276Z,99659.47
2022-11-16T13:03:18.925Z,99656.47
2022-11-16T13:05:56.067Z,99656.03
2022-11-16T13:08:44.121Z,99658.75
2022-11-16T13:11:25.840Z,99662.56
2022-11-16T13:13:57.848Z,99660.00
2022-11-16T13:16:25.163Z,99659.97
2022-11-16T13:18:54.564Z,99675.06
2022-11-16T13:21:39.750Z,99671.59
2022-11-16T13:24:24.164Z,99667.38
2022-11-16T13:27:12.530Z,99668.44
2022-11-16T13:29:59.402Z,99663.94
2022-11-16T13:32:53.688Z,99667.91
2022-11-16T13:35:20.944Z,99671.38
2022-11-16T13:37:49.625Z,99668.69
2022-11-16T13:40:33.239Z,99656.38
2022-11-16T13:43:11.693Z,99651.03
2022-11-16T13:45:42.840Z,99651.03
2022-11-16T13:48:21.045Z,99657.06
2022-11-16T13:50:50.831Z,99651.00
2022-11-16T13:56:14.004Z,99665.50
2022-11-16T13:58:47.623Z,99643.66
2022-11-16T14:01:15.020Z,99652.38
2022-11-16T14:03:44.709Z,99648.09
2022-11-16T14:06:20.151Z,99650.53
2022-11-16T14:08:49.232Z,99634.44
2022-11-16T14:11:35.154Z,99649.00
2022-11-16T14:14:05.802Z,99638.97
2022-11-16T14:16:47.348Z,99632.25
2022-11-16T14:19:51.995Z,99637.59
2022-11-16T14:22:21.246Z,99630.13
2022-11-16T14:24:57.585Z,99621.56
2022-11-16T14:27:30.979Z,99629.25
2022-11-16T14:30:03.397Z,99626.22
2022-11-16T14:32:41.429Z,99617.00
2022-11-16T14:35:27.585Z,99613.53
2022-11-16T14:38:00.781Z,99609.06
2022-11-16T14:40:27.745Z,99608.84
2022-11-16T14:43:21.527Z,99604.31
2022-11-16T14:45:54.478Z,99594.97
2022-11-16T14:48:25.859Z,99598.84
2022-11-16T14:51:09.490Z,99594.09
2022-11-16T14:53:39.516Z,99593.13
2022-11-16T14:56:15.141Z,99590.47
2022-11-16T14:58:56.546Z,99594.56
2022-11-16T15:01:27.767Z,99566.84
2022-11-16T15:04:02.476Z,99592.13
2022-11-16T15:06:42.146Z,99581.44
2022-11-16T15:09:16.699Z,99576.50
2022-11-16T15:12:07.498Z,99561.53
2022-11-16T15:14:40.051Z,99561.31
2022-11-16T15:17:07.278Z,99563.38
2022-11-16T15:19:33.758Z,99549.22
2022-11-16T15:22:02.068Z,99554.34
2022-11-16T15:24:32.200Z,99530.59
2022-11-16T15:27:12.082Z,99538.63
2022-11-16T15:29:38.909Z,99547.00
2022-11-16T15:32:07.438Z,99542.94
2022-11-16T15:34:34.014Z,99529.22
2022-11-16T15:37:00.481Z,99505.03
2022-11-16T15:39:32.214Z,99498.75
2022-11-16T15:42:03.451Z,99501.88
2022-11-16T15:44:31.570Z,99508.47
2022-11-16T15:46:58.782Z,99487.19
2022-11-16T15:49:36.118Z,99503.91
2022-11-16T15:52:02.598Z,99506.19
2022-11-16T15:54:51.115Z,99514.22
2022-11-16T15:57:19.493Z,99504.44
2022-11-16T15:59:55.146Z,99505.00
2022-11-16T16:02:28.187Z,99504.06
2022-11-16T16:04:54.675Z,99497.47
2022-11-16T16:07:42.178Z,99494.00
2022-11-16T16:10:26.843Z,99495.97
2022-11-16T16:12:55.645Z,99481.94
2022-11-16T16:15:22.897Z,99488.25
2022-11-16T16:17:50.706Z,99482.53
2022-11-16T16:20:19.953Z,99484.97
2022-11-16T16:22:46.526Z,99494.47
2022-11-16T16:25:34.004Z,99495.28
2022-11-16T16:28:00.739Z,99494.31
2022-11-16T16:30:29.313Z,99490.19
2022-11-16T16:32:56.257Z,99500.63
2022-11-16T16:35:24.535Z,99487.75
2022-11-16T16:37:57.359Z,99471.34
2022-11-16T16:40:23.763Z,99485.53
2022-11-16T16:42:50.939Z,99476.09
2022-11-16T16:45:23.352Z,99477.38
2022-11-16T16:47:50.261Z,99479.81
2022-11-16T16:50:17.069Z,99463.31
2022-11-16T16:52:43.557Z,99467.22
2022-11-16T16:55:09.989Z,99469.88
2022-11-16T16:57:36.525Z,99464.63
2022-11-16T17:00:04.201Z,99457.09
2022-11-16T17:02:30.839Z,99452.72
2022-11-16T17:04:57.222Z,99458.41
2022-11-16T17:07:23.697Z,99453.16
2022-11-16T17:09:50.154Z,99459.91
2022-11-16T17:12:16.557Z,99457.72
2022-11-16T17:14:42.994Z,99453.47
2022-11-16T17:17:10.156Z,99451.34
2022-11-16T17:19:37.790Z,99453.63
2022-11-16T17:22:05.236Z,99444.06
2022-11-16T17:24:31.665Z,99446.34
2022-11-16T17:26:58.068Z,99445.19
2022-11-16T17:29:24.437Z,99440.47
2022-11-16T17:31:50.805Z,99430.94
2022-11-16T17:34:17.391Z,99428.34
2022-11-16T17:36:44.490Z,99436.16
2022-11-16T17:39:10.961Z,99437.78
2022-11-16T17:41:38.412Z,99432.28
2022-11-16T17:44:05.204Z,99425.75
2022-11-16T17:46:31.733Z,99431.91
2022-11-16T17:48:58.444Z,99423.16
2022-11-16T17:51:26.137Z,99434.03
2022-11-16T17:53:52.900Z,99426.03
2022-11-16T17:56:21.711Z,99427.31
2022-11-16T17:58:50.251Z,99431.38
2022-11-16T18:01:16.965Z,99424.47
2022-11-16T18:03:43.469Z,99427.16
2022-11-16T18:06:15.425Z,99428.75
2022-11-16T18:08:43.634Z,99425.88
2022-11-16T18:11:21.870Z,99437.81
2022-11-16T18:13:55.960Z,99439.19
2022-11-16T18:16:25.055Z,99436.16
2022-11-16T18:19:02.895Z,99435.31
2022-11-16T18:21:29.420Z,99432.19
2022-11-16T18:23:58.130Z,99429.31
2022-11-16T18:26:25.067Z,99428.88
2022-11-16T18:28:52.554Z,99426.81
2022-11-16T18:31:22.541Z,99419.03
2022-11-16T18:33:50.826Z,99422.06
2022-11-16T18:36:18.633Z,99412.28
2022-11-16T18:38:45.818Z,99417.19
2022-11-16T18:41:12.181Z,99409.19
2022-11-16T18:43:39.938Z,99403.19
2022-11-16T18:46:06.769Z,99396.81
2022-11-16T18:48:33.501Z,99389.88
2022-11-16T18:51:01.020Z,99388.59
2022-11-16T18:53:28.409Z,99378.16
2022-11-16T18:55:57.995Z,99372.41
2022-11-16T18:58:49.267Z,99358.63
2022-11-16T19:01:14.509Z,99353.09
2022-11-16T19:03:41.405Z,99350.66
2022-11-16T19:06:09.857Z,99342.22
2022-11-16T19:08:38.367Z,99330.31
2022-11-16T19:11:13.545Z,99328.00
2022-11-16T19:13:41.851Z,99323.88
2022-11-16T19:16:10.295Z,99315.50
2022-11-16T19:18:37.827Z,99307.28
2022-11-16T19:21:12.207Z,99293.94
2022-11-16T19:23:41.487Z,99286.78
2022-11-16T19:26:08.589Z,99282.25
2022-11-16T19:28:36.956Z,99270.78
2022-11-16T19:31:12.896Z,99266.13
2022-11-16T19:33:41.149Z,99262.41
2022-11-16T19:36:15.741Z,99253.03
2022-11-16T19:38:43.056Z,99243.00
2022-11-16T19:41:11.320Z,99239.53
2022-11-16T19:43:38.502Z,99218.97
2022-11-16T19:46:06.476Z,99227.53
2022-11-16T19:48:33.161Z,99198.19
2022-11-16T19:51:08.871Z,99215.47
2022-11-16T19:53:36.571Z,99198.47
2022-11-16T19:56:04.819Z,99201.25
2022-11-16T19:58:32.078Z,99187.72
2022-11-16T20:01:06.272Z,99195.66
2022-11-16T20:03:33.242Z,99190.69
2022-11-16T20:06:06.395Z,99192.06
2022-11-16T20:08:32.945Z,99182.91
2022-11-16T20:10:59.397Z,99184.38
2022-11-16T20:13:25.883Z,99178.00
2022-11-16T20:15:52.274Z,99162.25
2022-11-16T20:18:18.748Z,99165.72
2022-11-16T20:20:45.153Z,99152.63
2022-11-16T20:23:15.607Z,99159.78
2022-11-16T20:25:42.156Z,99159.34
2022-11-16T20:28:09.503Z,99150.34
2022-11-16T20:30:36.096Z,99151.94
2022-11-16T20:33:02.478Z,99158.94
2022-11-16T20:35:29.007Z,99136.41
2022-11-16T20:37:55.396Z,99139.56
2022-11-16T20:40:22.857Z,99138.56
2022-11-16T20:42:49.390Z,99126.47
2022-11-16T20:45:15.807Z,99125.66
2022-11-16T20:47:42.225Z,99126.47
2022-11-16T20:50:09.072Z,99117.09
2022-11-16T20:52:39.650Z,99109.44
2022-11-16T20:55:09.911Z,99096.94
2022-11-16T20:57:36.416Z,99084.66
2022-11-16T21:00:05.004Z,99085.00
2022-11-16T21:02:31.416Z,99077.03
2022-11-16T21:05:00.480Z,99069.16
2022-11-16T21:07:27.298Z,99068.69
2022-11-16T21:10:12.525Z,99062.28
2022-11-16T21:12:57.328Z,99060.69
2022-11-16T21:15:23.779Z,99062.16
2022-11-16T21:17:50.147Z,99047.94
2022-11-16T21:20:32.252Z,99041.78
2022-11-16T21:22:58.705Z,99042.03
2022-11-16T21:25:25.229Z,99022.88
2022-11-16T21:27:51.691Z,99032.53
2022-11-16T21:30:19.963Z,99017.56
2022-11-16T21:32:46.382Z,99004.81
2022-11-16T21:35:12.866Z,99007.47
2022-11-16T21:37:39.244Z,99004.81
2022-11-16T21:40:06.221Z,98991.97
2022-11-16T21:42:32.579Z,98975.97
2022-11-16T21:44:58.956Z,98971.66
2022-11-16T21:47:25.539Z,98966.66
2022-11-16T21:50:16.803Z,98957.06
2022-11-16T21:52:38.310Z,98952.75
2022-11-16T21:55:05.117Z,98952.56
2022-11-16T21:57:31.505Z,98946.06
2022-11-16T22:00:00.943Z,98929.59
2022-11-16T22:02:27.430Z,98924.63
2022-11-16T22:05:12.233Z,98926.81
2022-11-16T22:07:40.837Z,98904.91
2022-11-16T22:10:11.810Z,98913.38
2022-11-16T22:12:38.772Z,98920.31
2022-11-16T22:15:07.062Z,98903.75
2022-11-16T22:17:33.516Z,98897.38
2022-11-16T22:19:59.953Z,98884.53
2022-11-16T22:22:26.402Z,98880.81
2022-11-16T22:24:52.983Z,98879.53
2022-11-16T22:27:19.570Z,98863.78
2022-11-16T22:29:45.966Z,98857.53
2022-11-16T22:32:12.376Z,98855.34
2022-11-16T22:34:38.814Z,98835.72
2022-11-16T22:37:06.090Z,98829.34
2022-11-16T22:39:32.529Z,98827.75
2022-11-16T22:41:59.070Z,98830.88
2022-11-16T22:44:25.459Z,98821.25
2022-11-16T22:46:52.658Z,98807.13
2022-11-16T22:49:19.316Z,98800.97
2022-11-16T22:51:45.906Z,98799.59
2022-11-16T22:54:12.903Z,98796.38
2022-11-16T22:56:39.317Z,98779.00
2022-11-16T22:59:05.888Z,98771.13
2022-11-16T23:01:32.681Z,98765.66
2022-11-16T23:03:59.112Z,98754.53
2022-11-16T23:06:25.721Z,98746.78
2022-11-16T23:08:52.195Z,98744.34
2022-11-16T23:11:39.303Z,98740.88
2022-11-16T23:14:25.857Z,98716.91
2022-11-16T23:16:52.709Z,98698.50
2022-11-16T23:19:39.952Z,98692.63
2022-11-16T23:22:26.901Z,98675.81
2022-11-16T23:25:11.619Z,98670.47
2022-11-16T23:27:43.193Z,98667.81
2022-11-16T23:30:13.081Z,98653.44
2022-11-16T23:32:40.742Z,98640.13
2022-11-16T23:35:07.610Z,98609.22
2022-11-16T23:37:34.029Z,98610.03
2022-11-16T23:40:00.400Z,98600.97
2022-11-16T23:42:45.525Z,98585.56
2022-11-16T23:45:11.924Z,98568.53
2022-11-16T23:47:38.288Z,98568.53
2022-11-16T23:50:05.191Z,98562.38
2022-11-16T23:52:31.589Z,98556.59
2022-11-16T23:54:57.982Z,98540.94
2022-11-16T23:57:24.491Z,98552.13
2022-11-16T23:59:50.915Z,98528.16
